Time;durP1;ratioP1;P1;durP2;ratioP2;P2;SDS_P1;SDS_P2;PMS_P1;PMS_P2;Temp;Humidity;BMP_temperature;BMP_pressure;BME280_temperature;BME280_humidity;BME280_pressure;Samples;Min_cycle;Max_cycle;Signal;HPM_P1;HPM_P2
2022/01/31 00:00:35;;;;;;;23.10;4.70;;;;;;;4.20;100.00;101314.13;5031291;28;20422;-74
2022/01/31 00:03:02;;;;;;;26.83;5.07;;;;;;;3.60;100.00;101253.41;5030652;28;20514;-73
2022/01/31 00:05:27;;;;;;;26.00;5.83;;;;;;;4.24;100.00;101332.28;5016270;28;20206;-72
2022/01/31 00:07:53;;;;;;;28.40;5.67;;;;;;;3.94;100.00;101280.28;5035914;28;20838;-73
2022/01/31 00:10:27;;;;;;;33.43;4.70;;;;;;;3.70;100.00;101235.63;5031153;28;20689;-73
2022/01/31 00:13:17;;;;;;;31.00;5.80;;;;;;;3.46;100.00;101190.19;5029405;28;20180;-78
2022/01/31 00:15:43;;;;;;;23.57;5.50;;;;;;;4.33;100.00;101305.81;5030575;28;21054;-74
2022/01/31 00:18:08;;;;;;;32.37;6.43;;;;;;;4.03;100.00;101214.84;5032754;28;20526;-74
2022/01/31 00:20:36;;;;;;;24.50;4.23;;;;;;;3.30;100.00;101098.00;5011020;28;20763;-72
2022/01/31 00:23:01;;;;;;;17.20;4.50;;;;;;;4.25;100.00;101264.06;5032794;28;20311;-72
2022/01/31 00:25:27;;;;;;;23.13;4.77;;;;;;;4.54;100.00;101250.63;5032954;28;20553;-73
2022/01/31 00:27:52;;;;;;;24.30;4.70;;;;;;;4.50;100.00;101249.25;5038461;28;20172;-75
2022/01/31 00:30:18;;;;;;;19.10;4.50;;;;;;;3.32;100.00;101062.41;5033769;28;20204;-74
2022/01/31 00:32:43;;;;;;;21.10;5.27;;;;;;;4.57;100.00;101230.88;5018655;28;20276;-73
2022/01/31 00:35:10;;;;;;;23.47;4.87;;;;;;;3.57;100.00;101060.06;5033221;28;20238;-73
2022/01/31 00:37:36;;;;;;;24.13;4.50;;;;;;;4.07;100.00;101113.53;5016808;28;20187;-75
2022/01/31 00:40:04;;;;;;;18.20;5.23;;;;;;;4.57;100.00;101189.25;5018459;28;20434;-74
2022/01/31 00:42:30;;;;;;;18.53;4.10;;;;;;;3.74;100.00;101056.63;5031365;28;20464;-72
2022/01/31 00:45:08;;;;;;;26.03;5.30;;;;;;;3.94;100.00;101086.53;5028711;28;20462;-72
2022/01/31 00:47:33;;;;;;;17.57;3.70;;;;;;;4.51;100.00;101153.50;5026234;28;20426;-72
2022/01/31 00:50:10;;;;;;;16.43;3.80;;;;;;;3.54;100.00;101009.97;5030556;28;20477;-73
2022/01/31 00:52:37;;;;;;;23.07;4.57;;;;;;;4.36;100.00;101124.94;5033388;28;20180;-71
2022/01/31 00:55:04;;;;;;;18.17;5.20;;;;;;;3.94;100.00;101004.25;5034849;28;20465;-75
2022/01/31 00:57:29;;;;;;;18.93;4.10;;;;;;;3.79;100.00;100987.16;5030001;28;20461;-73
2022/01/31 00:59:55;;;;;;;23.83;4.50;;;;;;;4.14;100.00;101025.31;5028852;28;20942;-73
2022/01/31 01:02:22;;;;;;;19.23;4.90;;;;;;;4.19;100.00;101007.09;5031768;28;20550;-74
2022/01/31 01:04:48;;;;;;;24.00;4.27;;;;;;;4.07;100.00;100974.66;5015572;28;21222;-74
2022/01/31 01:07:15;;;;;;;16.07;4.73;;;;;;;3.93;100.00;100952.13;5017608;28;20449;-73
2022/01/31 01:09:46;;;;;;;15.80;4.73;;;;;;;3.61;100.00;100887.19;5028213;28;20458;-74
2022/01/31 01:12:13;;;;;;;19.53;4.53;;;;;;;4.54;100.00;101008.88;5033100;28;20528;-72
2022/01/31 01:14:39;;;;;;;21.27;5.13;;;;;;;4.07;100.00;100926.88;5041019;22;20466;-72
2022/01/31 01:17:05;;;;;;;21.73;5.20;;;;;;;4.21;100.00;100957.34;4996667;28;20471;-72
2022/01/31 01:19:30;;;;;;;19.83;6.33;;;;;;;4.20;100.00;100932.63;5005540;28;20505;-71
2022/01/31 01:21:56;;;;;;;18.47;4.87;;;;;;;4.33;100.00;100958.75;5017308;28;20197;-71
2022/01/31 01:24:21;;;;;;;23.87;5.33;;;;;;;3.59;100.00;100862.66;5018517;28;20192;-72
2022/01/31 01:26:48;;;;;;;18.47;4.20;;;;;;;3.93;100.00;100887.63;4996691;28;20587;-72
2022/01/31 01:29:13;;;;;;;21.73;5.20;;;;;;;4.16;100.00;100925.13;5011270;28;20192;-71
2022/01/31 01:31:39;;;;;;;20.93;5.23;;;;;;;3.46;100.00;100817.13;5008819;28;20508;-72
2022/01/31 01:34:04;;;;;;;20.60;5.10;;;;;;;4.24;100.00;100920.69;5014588;28;20246;-73
2022/01/31 01:36:31;;;;;;;20.10;5.20;;;;;;;4.28;100.00;100919.41;5016441;28;20664;-70
2022/01/31 01:38:57;;;;;;;21.07;5.77;;;;;;;4.27;100.00;100907.09;5018482;28;20182;-70
2022/01/31 01:41:23;;;;;;;18.60;5.67;;;;;;;3.51;100.00;100788.31;5013770;28;20439;-72
2022/01/31 01:43:48;;;;;;;22.20;6.10;;;;;;;3.68;100.00;100805.19;5015615;28;20231;-71
2022/01/31 01:46:13;;;;;;;19.17;5.60;;;;;;;4.12;100.00;100846.78;5011155;28;20274;-73
2022/01/31 01:48:39;;;;;;;18.07;5.80;;;;;;;4.32;100.00;100860.69;5012690;28;20276;-72
2022/01/31 01:51:05;;;;;;;22.43;7.63;;;;;;;3.91;100.00;100805.53;5013316;28;20240;-72
2022/01/31 01:53:30;;;;;;;29.63;7.53;;;;;;;3.64;100.00;100774.66;5013862;28;20189;-71
2022/01/31 01:55:56;;;;;;;18.67;7.53;;;;;;;3.70;100.00;100750.16;5013073;28;20676;-71
2022/01/31 01:58:23;;;;;;;17.07;6.93;;;;;;;3.29;100.00;100675.63;5012932;28;20192;-73
2022/01/31 02:01:02;;;;;;;30.73;7.13;;;;;;;3.22;100.00;100664.00;5008999;28;20189;-72
2022/01/31 02:03:29;;;;;;;21.00;6.90;;;;;;;3.44;100.00;100720.13;5012811;28;20439;-71
2022/01/31 02:05:56;;;;;;;20.60;7.03;;;;;;;4.05;100.00;100793.47;5010928;28;20474;-71
2022/01/31 02:08:23;;;;;;;26.67;7.70;;;;;;;3.47;100.00;100704.78;4980926;28;20838;-71
2022/01/31 02:10:49;;;;;;;24.43;8.07;;;;;;;4.01;100.00;100777.03;5007639;28;20508;-72
2022/01/31 02:13:15;;;;;;;20.10;7.23;;;;;;;3.77;100.00;100761.81;5006878;28;20543;-72
2022/01/31 02:15:44;;;;;;;22.10;7.40;;;;;;;3.52;100.00;100694.50;5009556;28;20561;-72
2022/01/31 02:18:10;;;;;;;19.07;7.70;;;;;;;3.39;100.00;100700.25;5009124;28;20197;-71
2022/01/31 02:20:38;;;;;;;17.23;7.20;;;;;;;3.05;100.00;100641.03;5006617;28;20440;-71
2022/01/31 02:23:06;;;;;;;14.50;8.50;;;;;;;3.61;100.00;100720.09;5005860;28;20204;-72
2022/01/31 02:25:31;;;;;;;20.60;8.70;;;;;;;3.55;100.00;100709.28;5008503;28;20474;-70
2022/01/31 02:27:57;;;;;;;15.70;8.67;;;;;;;3.58;100.00;100706.31;5006532;28;20455;-71
2022/01/31 02:30:22;;;;;;;29.33;9.50;;;;;;;3.45;100.00;100660.84;5006382;28;20941;-72
2022/01/31 02:32:47;;;;;;;17.80;8.63;;;;;;;3.20;100.00;100662.50;5005464;28;20203;-73
2022/01/31 02:35:13;;;;;;;17.13;7.80;;;;;;;3.45;100.00;100666.13;5012426;28;20283;-72
2022/01/31 02:37:39;;;;;;;20.00;8.50;;;;;;;3.32;100.00;100616.16;5006627;28;20785;-72
2022/01/31 02:40:05;;;;;;;18.50;7.30;;;;;;;3.55;100.00;100640.31;5006708;28;20223;-72
2022/01/31 02:42:31;;;;;;;23.43;9.60;;;;;;;3.44;100.00;100637.94;5004187;28;20193;-71
2022/01/31 02:44:56;;;;;;;16.87;8.53;;;;;;;3.39;100.00;100631.31;5008538;28;20497;-70
2022/01/31 02:47:25;;;;;;;13.87;8.63;;;;;;;2.53;100.00;100521.78;5004456;28;20286;-70
2022/01/31 02:49:58;;;;;;;20.97;9.60;;;;;;;3.00;100.00;100574.41;5006411;28;20203;-71
2022/01/31 02:52:26;;;;;;;19.47;8.50;;;;;;;3.24;100.00;100586.97;5007423;28;20567;-72
2022/01/31 02:54:51;;;;;;;21.97;7.90;;;;;;;3.32;100.00;100600.25;5001579;28;20470;-71
2022/01/31 02:57:17;;;;;;;18.30;8.50;;;;;;;3.28;100.00;100583.03;5009147;28;20444;-71
2022/01/31 02:59:42;;;;;;;14.30;8.30;;;;;;;2.76;100.00;100519.44;5003158;28;20200;-71
2022/01/31 03:02:07;;;;;;;14.33;7.90;;;;;;;3.08;100.00;100566.50;4981879;28;20493;-71
2022/01/31 03:04:33;;;;;;;15.03;8.97;;;;;;;3.00;100.00;100539.97;5003300;28;20210;-71
2022/01/31 03:06:58;;;;;;;19.07;8.13;;;;;;;2.75;100.00;100501.88;4992987;28;20717;-70
2022/01/31 03:09:24;;;;;;;17.60;8.27;;;;;;;3.01;100.00;100531.00;5006785;28;20199;-70
2022/01/31 03:11:50;;;;;;;13.47;8.10;;;;;;;3.05;100.00;100524.44;5002459;28;20193;-70
2022/01/31 03:14:16;;;;;;;21.50;9.53;;;;;;;3.05;100.00;100519.94;5005073;28;20197;-70
2022/01/31 03:16:47;;;;;;;15.73;9.20;;;;;;;2.80;100.00;100491.66;5005635;28;20518;-70
2022/01/31 03:19:15;;;;;;;19.60;9.23;;;;;;;2.91;100.00;100494.88;4982857;28;20500;-71
2022/01/31 03:21:41;;;;;;;22.57;9.57;;;;;;;2.78;100.00;100456.53;4986338;28;20633;-70
2022/01/31 03:24:08;;;;;;;15.77;9.47;;;;;;;2.92;100.00;100491.25;5004982;28;20474;-70
2022/01/31 03:26:34;;;;;;;20.47;9.67;;;;;;;2.60;100.00;100422.19;4989343;28;23709;-72
2022/01/31 03:28:59;;;;;;;14.40;8.87;;;;;;;2.91;100.00;100470.19;5007400;28;20453;-71
2022/01/31 03:31:25;;;;;;;14.73;8.33;;;;;;;2.80;100.00;100450.09;5003629;28;20212;-71
2022/01/31 03:33:52;;;;;;;14.00;8.40;;;;;;;2.76;100.00;100426.75;5005470;28;20189;-72
2022/01/31 03:36:18;;;;;;;16.50;9.37;;;;;;;2.79;100.00;100458.22;5012265;28;21090;-70
2022/01/31 03:38:45;;;;;;;15.83;8.70;;;;;;;2.61;100.00;100408.81;5001353;28;20440;-74
2022/01/31 03:41:12;;;;;;;15.07;9.20;;;;;;;2.59;100.00;100431.94;5008184;28;20459;-72
2022/01/31 03:43:39;;;;;;;14.83;8.30;;;;;;;1.98;100.00;100312.00;5005185;28;20438;-71
2022/01/31 03:46:04;;;;;;;21.00;8.60;;;;;;;2.36;100.00;100343.47;5008461;28;20875;-71
2022/01/31 03:48:31;;;;;;;16.60;8.87;;;;;;;2.90;100.00;100410.25;5009137;28;20438;-71
2022/01/31 03:50:58;;;;;;;14.87;9.20;;;;;;;2.91;100.00;100396.84;5008559;28;20475;-72
2022/01/31 03:53:23;;;;;;;17.97;9.33;;;;;;;2.62;100.00;100356.66;4995983;28;21383;-71
2022/01/31 03:55:48;;;;;;;22.87;10.30;;;;;;;2.51;100.00;100341.88;5008473;28;20463;-72
2022/01/31 03:58:14;;;;;;;12.20;9.10;;;;;;;2.84;100.00;100371.16;4981846;28;20187;-71
2022/01/31 04:00:40;;;;;;;14.30;9.60;;;;;;;1.97;100.00;100207.19;5015070;28;20235;-71
2022/01/31 04:03:05;;;;;;;15.63;9.40;;;;;;;2.82;100.00;100339.53;5009187;28;20275;-72
2022/01/31 04:05:31;;;;;;;15.03;9.67;;;;;;;2.79;100.00;100299.31;5009575;28;20466;-72
2022/01/31 04:07:57;;;;;;;12.13;8.20;;;;;;;2.83;100.00;100293.50;5010529;28;20189;-72
2022/01/31 04:10:23;;;;;;;10.20;7.67;;;;;;;1.45;100.00;100082.22;5012493;28;20579;-72
2022/01/31 04:12:48;;;;;;;11.90;8.30;;;;;;;2.75;100.00;100258.22;5011360;28;20444;-72
2022/01/31 04:15:14;;;;;;;13.17;7.57;;;;;;;3.34;100.00;100314.63;4981050;28;20209;-72
2022/01/31 04:17:39;;;;;;;12.30;7.90;;;;;;;2.84;100.00;100212.25;5012081;28;20224;-71
2022/01/31 04:20:10;;;;;;;10.60;7.80;;;;;;;3.34;100.00;100306.69;5011168;28;20220;-72
2022/01/31 04:22:42;;;;;;;10.10;7.90;;;;;;;3.25;100.00;100265.25;5006686;28;20741;-72
2022/01/31 04:25:17;;;;;;;10.40;7.10;;;;;;;3.13;100.00;100225.00;5012338;28;20544;-72
2022/01/31 04:27:45;;;;;;;10.70;7.50;;;;;;;3.30;100.00;100273.56;5008273;28;21025;-72
2022/01/31 04:30:13;;;;;;;13.97;8.73;;;;;;;3.57;100.00;100283.81;4993455;28;20506;-72
2022/01/31 04:32:39;;;;;;;13.80;7.43;;;;;;;3.04;100.00;100186.22;5008336;28;20430;-72
2022/01/31 04:35:04;;;;;;;8.70;7.60;;;;;;;3.71;100.00;100292.09;5010224;28;21014;-71
2022/01/31 04:37:30;;;;;;;10.17;7.00;;;;;;;3.14;100.00;100194.84;4992217;28;20661;-73
2022/01/31 04:39:55;;;;;;;12.73;6.50;;;;;;;3.59;100.00;100273.06;5006308;28;20223;-75
2022/01/31 04:42:20;;;;;;;8.27;3.63;;;;;;;2.88;100.00;100116.38;5011931;28;20188;-76
2022/01/31 04:44:46;;;;;;;7.47;4.77;;;;;;;3.87;100.00;100265.53;5004871;28;20211;-74
2022/01/31 04:47:11;;;;;;;7.80;4.47;;;;;;;2.69;100.00;100119.34;4986965;28;20196;-75
2022/01/31 04:49:37;;;;;;;8.07;5.60;;;;;;;3.98;100.00;100248.44;5006740;28;20200;-75
2022/01/31 04:52:03;;;;;;;8.30;5.50;;;;;;;3.12;100.00;100159.75;5005566;28;20806;-74
2022/01/31 04:54:28;;;;;;;12.87;5.37;;;;;;;3.21;100.00;100118.16;4990151;28;20744;-74
2022/01/31 04:56:54;;;;;;;8.77;5.20;;;;;;;3.53;100.00;100162.31;5001776;28;20465;-75
2022/01/31 04:59:19;;;;;;;11.67;6.73;;;;;;;3.76;100.00;100197.75;4997926;28;20185;-74
2022/01/31 05:01:47;;;;;;;9.40;5.67;;;;;;;3.87;100.00;100222.25;5003891;28;20231;-74
2022/01/31 05:04:12;;;;;;;12.23;6.17;;;;;;;3.30;100.00;100094.13;4993673;28;20789;-75
2022/01/31 05:06:40;;;;;;;8.27;5.80;;;;;;;3.06;100.00;100033.22;5008547;28;20858;-74
2022/01/31 05:09:06;;;;;;;12.60;6.17;;;;;;;4.02;100.00;100189.53;5004345;28;20181;-74
2022/01/31 05:11:32;;;;;;;9.27;5.33;;;;;;;3.50;100.00;100044.19;5006172;28;20968;-75
2022/01/31 05:13:57;;;;;;;9.40;5.43;;;;;;;3.72;100.00;100082.38;5013074;28;20439;-74
2022/01/31 05:16:23;;;;;;;8.50;5.50;;;;;;;3.70;100.00;100064.97;5012064;28;20220;-74
2022/01/31 05:18:48;;;;;;;8.07;4.93;;;;;;;4.16;100.00;100180.00;5015981;28;20682;-74
2022/01/31 05:21:14;;;;;;;6.20;4.63;;;;;;;4.00;100.00;100113.75;5013298;28;20189;-74
2022/01/31 05:23:39;;;;;;;8.50;5.20;;;;;;;4.17;100.00;100136.56;5015994;28;20216;-74
2022/01/31 05:26:05;;;;;;;12.80;5.10;;;;;;;3.97;100.00;100104.31;5012864;28;20773;-74
2022/01/31 05:28:31;;;;;;;7.20;3.67;;;;;;;4.32;100.00;100173.81;5010594;28;20195;-74
2022/01/31 05:30:56;;;;;;;5.90;3.43;;;;;;;3.62;100.00;100049.94;5007168;28;20323;-74
2022/01/31 05:33:22;;;;;;;14.43;4.30;;;;;;;4.12;100.00;100127.47;5006768;28;20455;-75
2022/01/31 05:35:47;;;;;;;12.97;3.80;;;;;;;4.36;100.00;100159.16;5005749;28;20224;-75
2022/01/31 05:38:12;;;;;;;16.90;3.83;;;;;;;3.70;100.00;100036.63;5007452;28;20184;-76
2022/01/31 05:40:38;;;;;;;15.90;3.47;;;;;;;4.19;100.00;100108.00;5012151;28;20194;-75
2022/01/31 05:43:04;;;;;;;14.50;3.20;;;;;;;3.79;100.00;100032.09;4997810;28;20250;-76
2022/01/31 05:45:32;;;;;;;16.57;3.20;;;;;;;4.24;100.00;100104.81;4995591;28;20216;-77
2022/01/31 05:47:58;;;;;;;15.37;3.27;;;;;;;4.39;100.00;100107.53;4995769;28;20194;-78
2022/01/31 05:50:23;;;;;;;19.70;4.00;;;;;;;4.43;100.00;100111.50;5008435;28;20714;-76
2022/01/31 05:52:48;;;;;;;13.43;2.47;;;;;;;3.77;100.00;99997.81;4992981;28;20969;-77
2022/01/31 05:55:15;;;;;;;13.13;3.00;;;;;;;4.21;100.00;100054.75;4998994;28;20204;-76
2022/01/31 05:57:42;;;;;;;13.97;2.67;;;;;;;4.74;100.00;100124.72;4989929;28;20218;-76
2022/01/31 06:00:09;;;;;;;10.53;2.53;;;;;;;4.92;100.00;100143.03;4991434;28;20829;-75
2022/01/31 06:02:35;;;;;;;15.33;3.33;;;;;;;4.11;100.00;100035.56;5007860;28;20431;-76
2022/01/31 06:05:01;;;;;;;21.17;3.70;;;;;;;3.72;100.00;99973.63;5004033;28;20521;-77
2022/01/31 06:07:27;;;;;;;13.57;2.53;;;;;;;4.47;100.00;100121.59;5001288;28;20539;-75
2022/01/31 06:09:52;;;;;;;17.10;3.10;;;;;;;4.17;100.00;100059.59;5004822;28;20835;-76
2022/01/31 06:12:17;;;;;;;20.03;3.13;;;;;;;4.74;100.00;100117.59;5004210;28;20197;-77
2022/01/31 06:14:43;;;;;;;16.20;3.10;;;;;;;4.63;100.00;100087.94;4987198;28;20295;-76
2022/01/31 06:17:08;;;;;;;14.37;3.00;;;;;;;4.06;100.00;100006.91;4997199;28;20200;-76
2022/01/31 06:19:34;;;;;;;16.50;2.53;;;;;;;4.95;100.00;100145.31;4999430;28;20721;-75
2022/01/31 06:21:59;;;;;;;25.93;3.60;;;;;;;4.54;100.00;100084.50;5001078;28;20204;-75
2022/01/31 06:24:25;;;;;;;18.07;3.23;;;;;;;4.68;100.00;100082.91;5008570;28;20191;-76
2022/01/31 06:26:51;;;;;;;20.20;3.30;;;;;;;4.08;100.00;100002.25;5000837;28;20173;-76
2022/01/31 06:29:16;;;;;;;11.03;3.07;;;;;;;3.41;100.00;99915.31;5003074;28;20185;-76
2022/01/31 06:31:42;;;;;;;12.27;2.83;;;;;;;4.98;100.00;100137.81;5002108;28;20414;-76
2022/01/31 06:34:07;;;;;;;17.10;3.30;;;;;;;3.34;100.00;99901.13;5002187;28;20665;-76
2022/01/31 06:36:32;;;;;;;21.83;4.63;;;;;;;3.34;100.00;99874.59;5005481;28;20228;-76
2022/01/31 06:38:58;;;;;;;20.43;3.10;;;;;;;2.84;100.00;99820.25;5003863;28;20267;-76
2022/01/31 06:41:24;;;;;;;13.87;2.70;;;;;;;4.46;100.00;100069.50;5003857;28;20542;-77
2022/01/31 06:43:51;;;;;;;10.03;2.10;;;;;;;4.53;100.00;100125.38;5004097;28;20201;-76
2022/01/31 06:46:16;;;;;;;10.00;2.10;;;;;;;4.48;100.00;100082.56;5007382;28;20467;-76
2022/01/31 06:48:42;;;;;;;13.43;2.77;;;;;;;4.33;100.00;100073.75;4998858;28;20813;-76
2022/01/31 06:51:08;;;;;;;12.20;2.90;;;;;;;4.86;100.00;100127.75;5000583;28;20570;-76
2022/01/31 06:53:34;;;;;;;15.50;2.63;;;;;;;4.74;100.00;100130.03;4997920;28;20184;-78
2022/01/31 06:56:00;;;;;;;10.70;2.90;;;;;;;4.10;100.00;100015.34;4991376;28;20236;-77
2022/01/31 06:58:26;;;;;;;15.20;2.83;;;;;;;4.86;100.00;100130.44;5003723;28;20545;-78
2022/01/31 07:00:53;;;;;;;8.60;2.20;;;;;;;4.80;100.00;100128.47;4976436;28;20459;-78
2022/01/31 07:03:19;;;;;;;8.40;2.00;;;;;;;4.29;100.00;100028.97;5004473;28;20864;-76
2022/01/31 07:05:45;;;;;;;14.20;2.40;;;;;;;4.86;100.00;100119.78;4986208;28;20464;-76
2022/01/31 07:08:12;;;;;;;12.17;2.20;;;;;;;4.89;100.00;100119.44;5000956;28;20225;-75
2022/01/31 07:10:38;;;;;;;12.20;2.33;;;;;;;4.90;100.00;100115.78;5002560;28;20463;-76
2022/01/31 07:13:23;;;;;;;14.30;2.93;;;;;;;4.41;100.00;100033.84;4996751;28;20454;-87
2022/01/31 07:15:48;;;;;;;14.10;2.20;;;;;;;4.68;100.00;100099.69;5014323;22;20510;-72
2022/01/31 07:18:14;;;;;;;10.47;2.17;;;;;;;4.84;100.00;100108.53;5030504;28;21448;-71
2022/01/31 07:20:41;;;;;;;11.73;3.03;;;;;;;4.64;100.00;100074.50;5041675;28;20186;-72
2022/01/31 07:23:17;;;;;;;10.63;2.03;;;;;;;4.62;100.00;100057.06;5034765;28;20657;-71
2022/01/31 07:25:43;;;;;;;10.97;2.60;;;;;;;4.82;100.00;100108.72;5032231;28;20965;-72
2022/01/31 07:28:10;;;;;;;6.03;1.77;;;;;;;4.97;100.00;100130.00;5027645;28;20525;-71
2022/01/31 07:30:40;;;;;;;12.40;2.63;;;;;;;4.91;100.00;100131.53;5028168;28;20474;-71
2022/01/31 07:33:10;;;;;;;8.33;2.10;;;;;;;4.94;100.00;100117.06;5028952;28;20805;-71
2022/01/31 07:35:36;;;;;;;13.30;2.63;;;;;;;5.19;100.00;100131.78;5032153;28;20462;-71
2022/01/31 07:38:02;;;;;;;11.50;2.30;;;;;;;5.04;100.00;100128.28;5018788;28;20446;-72
2022/01/31 07:40:28;;;;;;;6.33;1.60;;;;;;;4.98;100.00;100082.00;5020305;28;20435;-72
2022/01/31 07:42:53;;;;;;;9.80;1.80;;;;;;;5.55;100.00;100136.41;5027769;28;20532;-71
2022/01/31 07:45:18;;;;;;;9.03;1.83;;;;;;;5.12;100.00;100088.34;5019079;28;20295;-71
2022/01/31 07:47:44;;;;;;;7.30;2.40;;;;;;;4.64;100.00;100058.56;5024938;28;20273;-71
2022/01/31 07:50:10;;;;;;;7.67;1.90;;;;;;;4.99;100.00;100114.72;4993133;28;20212;-72
2022/01/31 07:52:35;;;;;;;10.27;2.10;;;;;;;4.96;100.00;100139.00;5024375;28;20905;-72
2022/01/31 07:55:01;;;;;;;8.97;2.43;;;;;;;4.58;100.00;100100.94;5025165;28;20206;-72
2022/01/31 07:57:26;;;;;;;9.87;2.30;;;;;;;4.89;100.00;100146.84;5025350;28;20181;-72
2022/01/31 07:59:52;;;;;;;8.17;2.53;;;;;;;4.94;100.00;100141.00;5026197;28;20632;-71
2022/01/31 08:02:18;;;;;;;10.97;2.30;;;;;;;4.98;100.00;100147.63;5012710;28;20282;-72
2022/01/31 08:04:43;;;;;;;13.80;2.30;;;;;;;4.81;100.00;100148.75;5010786;28;20492;-72
2022/01/31 08:07:09;;;;;;;12.10;2.33;;;;;;;4.87;100.00;100158.66;5020283;28;20271;-72
2022/01/31 08:09:34;;;;;;;11.00;2.20;;;;;;;4.52;100.00;100102.47;5023288;28;20660;-74
2022/01/31 08:12:00;;;;;;;10.50;2.33;;;;;;;4.76;100.00;100143.97;5018449;28;20195;-72
2022/01/31 08:14:25;;;;;;;6.53;1.63;;;;;;;4.93;100.00;100173.91;5024304;28;20192;-71
2022/01/31 08:16:51;;;;;;;5.60;2.13;;;;;;;5.06;100.00;100173.28;5023623;28;21254;-71
2022/01/31 08:19:16;;;;;;;8.43;1.97;;;;;;;5.12;100.00;100168.09;5025744;28;20267;-71
2022/01/31 08:21:42;;;;;;;11.83;2.10;;;;;;;5.02;100.00;100161.38;5025463;28;20230;-71
2022/01/31 08:24:07;;;;;;;11.07;2.23;;;;;;;4.62;100.00;100112.84;5025112;28;20193;-72
2022/01/31 08:26:33;;;;;;;9.87;2.33;;;;;;;4.96;100.00;100160.25;4998836;28;20672;-72
2022/01/31 08:29:03;;;;;;;9.83;2.57;;;;;;;4.94;100.00;100156.94;5025282;28;20279;-72
2022/01/31 08:31:29;;;;;;;6.20;1.50;;;;;;;4.87;100.00;100148.03;5030386;28;20578;-71
2022/01/31 08:36:21;;;;;;;9.23;1.90;;;;;;;5.04;100.00;100176.13;5029893;28;20464;-71
2022/01/31 08:38:47;;;;;;;7.87;1.60;;;;;;;4.52;100.00;100118.41;5028886;28;20975;-72
2022/01/31 08:41:13;;;;;;;8.93;1.80;;;;;;;5.01;100.00;100191.63;5025946;28;20196;-71
2022/01/31 08:43:40;;;;;;;11.80;1.80;;;;;;;5.07;100.00;100198.88;5031182;28;20282;-72
2022/01/31 08:46:06;;;;;;;9.47;1.87;;;;;;;5.03;100.00;100192.25;5030571;28;20474;-71
2022/01/31 08:48:32;;;;;;;10.63;2.17;;;;;;;4.58;100.00;100123.03;5030529;28;20522;-71
2022/01/31 08:50:58;;;;;;;9.10;2.77;;;;;;;5.13;100.00;100195.50;5028627;28;21120;-71
2022/01/31 08:53:24;;;;;;;7.47;1.77;;;;;;;4.40;100.00;100072.03;5031827;28;20545;-72
2022/01/31 08:56:00;;;;;;;8.63;2.10;;;;;;;4.97;100.00;100161.91;5030835;28;20536;-71
2022/01/31 08:58:26;;;;;;;5.70;1.63;;;;;;;5.29;100.00;100210.47;5031053;28;20211;-72
2022/01/31 09:01:00;;;;;;;10.77;1.70;;;;;;;5.20;100.00;100223.00;5031642;28;20456;-72
2022/01/31 09:06:05;;;;;;;9.97;2.20;;;;;;;5.31;100.00;100219.09;5033090;28;20493;-71
2022/01/31 09:08:31;;;;;;;13.10;2.90;;;;;;;4.63;100.00;100112.69;5021859;28;21153;-71
2022/01/31 09:10:57;;;;;;;6.30;1.87;;;;;;;4.96;100.00;100184.16;5028618;28;20589;-72
2022/01/31 09:13:22;;;;;;;9.70;2.10;;;;;;;5.45;100.00;100244.91;5027441;28;20188;-71
2022/01/31 09:15:48;;;;;;;10.00;2.27;;;;;;;5.56;100.00;100238.34;5033936;28;20483;-71
2022/01/31 09:18:13;;;;;;;7.87;1.97;;;;;;;5.00;100.00;100182.78;5031185;28;20185;-72
2022/01/31 09:20:39;;;;;;;12.00;2.80;;;;;;;5.37;100.00;100229.03;5036578;28;20176;-71
2022/01/31 09:23:05;;;;;;;7.57;2.00;;;;;;;5.48;100.00;100236.56;5022178;28;20188;-71
2022/01/31 09:25:31;;;;;;;15.93;2.77;;;;;;;5.56;100.00;100238.34;5023422;28;20306;-71
2022/01/31 09:27:58;;;;;;;11.70;2.03;;;;;;;4.87;100.00;100142.72;5032548;28;20979;-72
2022/01/31 09:30:26;;;;;;;16.27;3.27;;;;;;;4.81;100.00;100130.97;5029388;28;20609;-71
2022/01/31 09:32:52;;;;;;;15.70;3.23;;;;;;;5.74;100.00;100262.78;5025436;28;20517;-71
2022/01/31 09:35:17;;;;;;;8.23;2.27;;;;;;;5.83;100.00;100267.00;5004926;28;20589;-72
2022/01/31 09:37:43;;;;;;;13.43;2.70;;;;;;;5.88;100.00;100261.16;5025682;28;20468;-71
2022/01/31 09:40:09;;;;;;;11.87;2.30;;;;;;;5.99;100.00;100270.53;5034188;28;20196;-71
2022/01/31 09:42:50;;;;;;;11.03;1.97;;;;;;;5.96;100.00;100254.91;5015064;28;20561;-71
2022/01/31 09:45:23;;;;;;;14.90;2.63;;;;;;;6.15;100.00;100264.22;5034399;28;20296;-71
2022/01/31 09:50:30;;;;;;;9.97;2.63;;;;;;;6.36;100.00;100260.78;5032635;28;20557;-71
2022/01/31 09:52:56;;;;;;;7.17;1.87;;;;;;;6.40;100.00;100286.88;5029805;28;20430;-71
2022/01/31 09:55:24;;;;;;;13.20;2.57;;;;;;;5.99;100.00;100218.13;5030700;28;20459;-71
2022/01/31 09:57:50;;;;;;;8.00;2.20;;;;;;;6.44;100.00;100290.81;5027412;28;20191;-72
2022/01/31 10:00:16;;;;;;;11.50;2.60;;;;;;;6.56;100.00;100300.00;5030785;28;20431;-71
2022/01/31 10:03:09;;;;;;;9.57;1.60;;;;;;;6.07;100.00;100211.88;5027612;28;20917;-71
2022/01/31 10:05:34;;;;;;;8.27;1.90;;;;;;;6.39;100.00;100279.88;5029152;28;21022;-71
2022/01/31 10:08:10;;;;;;;5.27;1.93;;;;;;;6.83;100.00;100313.66;5014546;28;20511;-71
2022/01/31 10:10:42;;;;;;;7.90;2.07;;;;;;;6.81;100.00;100302.34;5023027;28;20294;-71
2022/01/31 10:19:05;;;;;;;7.20;1.53;;;;;;;6.73;100.00;100323.78;5027597;28;20441;-71
2022/01/31 10:21:32;;;;;;;10.23;1.90;;;;;;;6.27;100.00;100257.41;5024067;28;20442;-71
2022/01/31 10:23:57;;;;;;;6.67;2.00;;;;;;;6.72;100.00;100356.78;5025952;28;20492;-71
2022/01/31 10:26:30;;;;;;;6.77;1.70;;;;;;;6.89;100.00;100360.09;5023509;28;21261;-71
2022/01/31 10:29:13;;;;;;;6.60;1.83;;;;;;;6.88;100.00;100359.22;5027186;28;20183;-72
2022/01/31 10:31:53;;;;;;;10.37;1.53;;;;;;;6.94;100.00;100345.19;5022524;28;20839;-72
2022/01/31 10:34:20;;;;;;;8.70;1.87;;;;;;;7.15;100.00;100333.72;5027907;28;20427;-71
2022/01/31 10:36:46;;;;;;;13.03;2.50;;;;;;;7.27;100.00;100355.38;5031752;28;20848;-71
2022/01/31 10:39:15;;;;;;;6.87;1.43;;;;;;;7.47;100.00;100350.25;5016747;28;20960;-72
2022/01/31 10:50:49;;;;;;;11.13;2.83;;;;;;;7.24;100.00;100366.44;5027955;28;21050;-72
2022/01/31 10:53:14;;;;;;;11.23;2.43;;;;;;;6.41;100.00;100243.25;5030998;28;20430;-72
2022/01/31 10:55:40;;;;;;;20.77;3.03;;;;;;;6.82;100.00;100265.84;5031697;28;20607;-72
2022/01/31 10:58:08;;;;;;;14.63;2.70;;;;;;;7.15;100.00;100373.72;5027953;28;20188;-72
2022/01/31 11:00:37;;;;;;;14.27;2.60;;;;;;;6.88;100.00;100271.25;5029693;28;20177;-72
2022/01/31 11:03:24;;;;;;;12.30;2.50;;;;;;;7.54;100.00;100382.34;5030936;28;20435;-74
2022/01/31 11:05:50;;;;;;;5.80;1.60;;;;;;;7.34;100.00;100321.59;5029212;28;20446;-72
2022/01/31 11:08:16;;;;;;;10.53;2.23;;;;;;;7.85;100.00;100390.84;5028306;28;20910;-73
2022/01/31 11:10:42;;;;;;;16.60;2.80;;;;;;;7.79;100.00;100393.47;5024018;28;20208;-72
2022/01/31 11:13:08;;;;;;;11.60;2.37;;;;;;;7.87;100.00;100404.84;5029568;28;20461;-72
2022/01/31 11:15:34;;;;;;;11.80;2.67;;;;;;;7.49;100.00;100372.22;5025135;28;20212;-74
2022/01/31 11:18:01;;;;;;;15.27;3.00;;;;;;;7.54;100.00;100393.84;5028675;28;20514;-75
2022/01/31 11:20:27;;;;;;;16.27;2.80;;;;;;;7.66;100.00;100415.50;5022949;28;20197;-72
2022/01/31 11:22:58;;;;;;;19.83;2.70;;;;;;;7.83;100.00;100421.44;5029442;28;20431;-72
2022/01/31 11:25:29;;;;;;;27.27;2.83;;;;;;;7.79;100.00;100426.34;5027165;28;20463;-73
2022/01/31 11:28:01;;;;;;;14.07;2.83;;;;;;;7.61;100.00;100432.13;5029535;28;22247;-73
2022/01/31 11:30:26;;;;;;;16.20;2.90;;;;;;;7.54;100.00;100423.19;5015225;28;20559;-73
2022/01/31 11:32:53;;;;;;;16.10;3.17;;;;;;;7.59;100.00;100438.66;5011254;28;20639;-72
2022/01/31 11:35:19;;;;;;;11.50;2.50;;;;;;;7.73;100.00;100437.78;5016437;28;21081;-73
2022/01/31 12:47:14;;;;;;;11.30;2.53;;;;;;;8.11;100.00;100517.66;5085058;22;20523;-77
2022/01/31 12:49:40;;;;;;;14.63;2.17;;;;;;;8.33;100.00;100579.91;4952434;28;20568;-78